Date,TemperatureHighF,TemperatureAvgF,TemperatureLowF,DewpointHighF,DewpointAvgF,DewpointLowF,HumidityHigh,HumidityAvg,HumidityLow,PressureMaxIn,PressureMinIn,WindSpeedMaxMPH,WindSpeedAvgMPH,GustSpeedMaxMPH,PrecipitationSumIn
2013-4-1,81.0,73.2,66.0,58.0,54.9,52.0,62,53,43,0.00,40.00,12,7,19,0.00
2013-4-2,80.0,72.3,65.0,59.0,54.8,51.0,62,54,45,0.00,40.00,16,9,28,0.00
2013-4-3,79.0,72.3,68.0,59.0,55.9,51.0,62,57,49,0.00,40.00,18,10,25,0.00
2013-4-4,81.0,74.4,68.0,63.0,59.0,56.0,68,59,52,0.00,40.00,11,8,18,0.00
2013-4-5,80.0,76.4,72.0,66.0,60.5,55.0,66,58,47,0.00,40.00,15,9,22,0.00
2013-4-6,83.0,77.3,73.0,68.0,64.5,63.0,72,65,52,0.00,40.00,14,10,21,0.00
2013-4-7,84.0,77.4,73.0,68.0,63.3,60.0,71,62,49,0.00,40.00,17,12,23,0.00
2013-4-8,83.0,76.1,70.0,64.0,61.5,58.0,78,61,52,0.00,40.00,17,11,24,0.00
2013-4-9,83.0,77.0,71.0,66.0,62.5,59.0,66,61,54,0.00,40.00,16,10,23,0.00
2013-4-10,83.0,76.9,72.0,66.0,62.6,59.0,73,62,52,0.00,40.00,19,12,27,0.00
2013-4-11,80.0,75.6,70.0,65.0,63.3,61.0,76,66,60,0.00,40.00,18,9,25,0.02
2013-4-12,83.0,76.7,71.0,65.0,62.1,59.0,75,61,49,0.00,40.00,11,7,16,0.01
2013-4-13,83.0,76.2,70.0,67.0,63.0,61.0,76,64,57,0.00,40.00,11,5,15,0.01
2013-4-14,84.0,76.8,71.0,68.0,64.3,60.0,77,66,54,0.00,40.00,8,4,12,0.02
2013-4-15,84.0,76.3,69.0,66.0,62.9,59.0,71,64,53,0.00,40.00,9,5,13,0.01
2013-4-16,84.0,77.4,72.0,67.0,63.8,61.0,74,63,53,0.00,40.00,10,8,16,0.01
2013-4-17,82.0,75.4,70.0,68.0,62.8,59.0,80,65,52,0.00,40.00,22,12,31,0.21
2013-4-18,83.0,76.5,71.0,67.0,61.5,58.0,70,60,49,0.00,40.00,20,14,29,0.01
2013-4-19,77.0,73.3,70.0,68.0,61.9,58.0,78,68,57,0.00,40.00,17,10,25,0.20
2013-4-20,82.0,75.9,68.0,65.0,61.7,55.0,74,62,54,0.00,40.00,9,6,15,0.01
2013-4-21,81.0,74.2,70.0,67.0,64.1,62.0,79,71,62,0.00,40.00,10,5,15,0.93
2013-4-22,85.0,77.2,71.0,68.0,65.1,63.0,78,67,56,0.00,40.00,7,4,12,0.05
2013-4-23,83.0,77.0,70.0,67.0,64.1,62.0,78,65,53,0.00,40.00,9,6,12,0.02
2013-4-24,83.0,75.7,69.0,66.0,62.9,60.0,76,65,52,0.00,40.00,17,10,25,0.02
2013-4-25,85.0,77.5,72.0,68.0,60.1,55.0,65,56,39,0.00,40.00,21,16,32,0.00
2013-4-26,83.0,77.6,73.0,62.0,60.2,57.0,63,55,45,0.00,40.00,20,16,30,0.00
2013-4-27,82.0,75.1,69.0,64.0,61.7,59.0,71,63,49,0.00,40.00,13,7,21,0.04
2013-4-28,83.0,75.5,71.0,67.0,63.3,61.0,77,66,56,0.00,40.00,12,4,16,0.04
2013-4-29,83.0,74.4,69.0,67.0,64.8,62.0,80,72,59,0.00,40.00,10,5,21,1.66
2013-4-30,78.0,73.3,70.0,66.0,63.4,59.0,79,71,62,0.00,40.00,11,6,15,0.28